createdAt,value
2018-02-16T00:00:03.563Z,92.80
2018-02-16T00:04:06.098Z,92.60
2018-02-16T00:08:08.612Z,92.40
2018-02-16T00:12:11.149Z,92.40
2018-02-16T00:16:13.689Z,92.30
2018-02-16T00:20:16.229Z,92.30
2018-02-16T00:24:18.763Z,92.20
2018-02-16T00:28:21.309Z,92.10
2018-02-16T00:32:23.826Z,92.10
2018-02-16T00:36:27.126Z,92.10
2018-02-16T00:40:29.646Z,92.10
2018-02-16T00:44:32.233Z,92.10
2018-02-16T00:48:34.736Z,92.20
2018-02-16T00:52:38.087Z,92.20
2018-02-16T00:56:40.587Z,92.20
2018-02-16T01:00:43.112Z,92.10
2018-02-16T01:04:46.401Z,92.00
2018-02-16T01:08:49.702Z,92.20
2018-02-16T01:12:52.992Z,92.00
2018-02-16T01:16:55.520Z,91.90
2018-02-16T01:20:58.098Z,91.80
2018-02-16T01:25:00.641Z,91.70
2018-02-16T01:29:03.151Z,91.70
2018-02-16T01:33:05.685Z,91.70
2018-02-16T01:37:08.193Z,92.00
2018-02-16T01:41:10.735Z,91.70
2018-02-16T01:45:13.234Z,91.60
2018-02-16T01:49:15.757Z,91.60
2018-02-16T01:53:18.265Z,91.50
2018-02-16T01:57:20.799Z,91.50
2018-02-16T02:01:23.311Z,91.40
2018-02-16T02:05:25.842Z,91.30
2018-02-16T02:09:29.141Z,91.30
2018-02-16T02:13:32.432Z,91.40
2018-02-16T02:17:34.933Z,91.30
2018-02-16T02:21:38.233Z,91.10
2018-02-16T02:25:41.504Z,91.00
2018-02-16T02:29:44.023Z,91.00
2018-02-16T02:33:47.513Z,90.90
2018-02-16T02:37:50.049Z,90.80
2018-02-16T02:41:52.574Z,91.10
2018-02-16T02:45:55.111Z,90.80
2018-02-16T02:49:57.618Z,90.80
2018-02-16T02:54:00.145Z,90.80
2018-02-16T02:58:03.441Z,91.20
2018-02-16T03:02:05.955Z,91.10
2018-02-16T03:06:09.236Z,90.70
2018-02-16T03:10:12.360Z,90.70
2018-02-16T03:14:15.651Z,90.60
2018-02-16T03:18:18.941Z,90.60
2018-02-16T03:22:21.466Z,90.60
2018-02-16T03:26:23.992Z,90.50
2018-02-16T03:30:26.493Z,90.60
2018-02-16T03:34:29.025Z,90.50
2018-02-16T03:38:31.532Z,90.40
2018-02-16T03:42:34.052Z,90.30
2018-02-16T03:46:36.544Z,90.30
2018-02-16T03:50:39.071Z,90.20
2018-02-16T03:54:41.613Z,90.00
2018-02-16T03:58:44.124Z,90.00
2018-02-16T04:02:46.640Z,90.10
2018-02-16T04:06:49.233Z,90.00
2018-02-16T04:10:51.746Z,89.80
2018-02-16T04:14:54.267Z,89.50
2018-02-16T04:18:56.786Z,89.50
2018-02-16T04:22:59.313Z,89.20
2018-02-16T04:27:01.836Z,88.80
2018-02-16T04:31:04.368Z,88.70
2018-02-16T04:35:07.693Z,88.80
2018-02-16T04:39:11.003Z,88.80
2018-02-16T04:43:14.272Z,88.70
2018-02-16T04:47:16.809Z,88.70
2018-02-16T04:51:19.314Z,89.30
2018-02-16T04:55:21.858Z,89.30
2018-02-16T04:59:25.138Z,89.70
2018-02-16T05:03:27.663Z,89.70
2018-02-16T05:07:30.945Z,89.70
2018-02-16T05:11:33.480Z,89.60
2018-02-16T05:15:35.999Z,90.10
2018-02-16T05:19:38.527Z,89.50
2018-02-16T05:23:41.787Z,89.90
2018-02-16T05:27:44.321Z,89.90
2018-02-16T05:31:46.820Z,90.00
2018-02-16T05:35:49.352Z,90.20
2018-02-16T05:39:51.885Z,90.30
2018-02-16T05:43:54.445Z,90.40
2018-02-16T05:47:57.707Z,90.60
2018-02-16T05:52:00.238Z,90.60
2018-02-16T05:56:03.512Z,90.90
2018-02-16T06:00:06.190Z,90.90
2018-02-16T06:04:08.700Z,90.90
2018-02-16T06:08:11.223Z,91.00
2018-02-16T06:12:13.775Z,91.00
2018-02-16T06:16:16.292Z,91.20
2018-02-16T06:20:18.817Z,91.50
2018-02-16T06:24:21.376Z,91.20
2018-02-16T06:28:23.888Z,91.20
2018-02-16T06:32:26.412Z,91.20
2018-02-16T06:36:29.743Z,91.20
2018-02-16T06:40:32.253Z,91.20
2018-02-16T06:44:34.781Z,91.20
2018-02-16T06:48:37.288Z,91.20
2018-02-16T06:52:40.564Z,91.30
2018-02-16T06:56:43.082Z,91.20
2018-02-16T07:00:45.607Z,91.70
2018-02-16T07:04:48.126Z,91.40
2018-02-16T07:08:50.660Z,91.20
2018-02-16T07:12:53.931Z,91.10
2018-02-16T07:16:57.218Z,90.50
2018-02-16T07:21:06.246Z,90.50
2018-02-16T07:25:08.805Z,90.30
2018-02-16T07:29:11.339Z,90.30
2018-02-16T07:33:14.638Z,89.00
2018-02-16T07:37:17.934Z,87.90
2018-02-16T07:41:20.513Z,87.80
2018-02-16T07:45:23.029Z,87.80
2018-02-16T07:49:26.351Z,85.80
2018-02-16T07:53:28.877Z,85.70
2018-02-16T07:57:31.408Z,80.50
2018-02-16T08:01:34.738Z,69.80
2018-02-16T08:05:37.276Z,69.80
2018-02-16T08:09:39.780Z,66.50
2018-02-16T08:13:43.082Z,70.20
2018-02-16T08:17:46.413Z,72.10
2018-02-16T08:21:59.574Z,72.00
2018-02-16T08:26:02.785Z,70.30
2018-02-16T08:30:05.379Z,71.80
2018-02-16T08:34:07.922Z,74.70
2018-02-16T08:38:10.459Z,75.20
2018-02-16T08:42:13.988Z,74.00
2018-02-16T08:46:17.180Z,74.00
2018-02-16T08:50:20.464Z,75.10
2018-02-16T08:54:23.190Z,75.00
2018-02-16T08:58:25.702Z,69.00
2018-02-16T09:02:28.297Z,61.70
2018-02-16T09:06:30.860Z,58.10
2018-02-16T09:10:33.373Z,55.40
2018-02-16T09:14:35.951Z,54.30
2018-02-16T09:18:38.475Z,52.80
2018-02-16T09:22:40.999Z,52.50
2018-02-16T09:26:43.552Z,52.10
2018-02-16T09:30:46.276Z,52.70
2018-02-16T09:34:48.861Z,53.50
2018-02-16T09:38:55.795Z,53.90
2018-02-16T09:42:58.320Z,53.70
2018-02-16T09:47:01.592Z,57.70
2018-02-16T09:51:04.129Z,57.70
2018-02-16T09:55:06.706Z,60.80
2018-02-16T09:59:09.376Z,62.40
2018-02-16T10:03:11.963Z,62.40
2018-02-16T10:07:14.564Z,61.50
2018-02-16T10:11:17.828Z,59.30
2018-02-16T10:15:20.355Z,59.30
2018-02-16T10:19:23.622Z,60.00
2018-02-16T10:23:26.945Z,59.30
2018-02-16T10:27:29.455Z,59.20
2018-02-16T10:31:32.751Z,62.20
2018-02-16T10:35:36.019Z,62.40
2018-02-16T10:39:38.556Z,62.40
2018-02-16T10:43:41.082Z,63.80
2018-02-16T10:47:43.639Z,65.10
2018-02-16T10:51:46.249Z,66.50
2018-02-16T10:55:49.540Z,68.70
2018-02-16T10:59:52.069Z,68.60
2018-02-16T11:03:59.398Z,70.30
2018-02-16T11:08:16.408Z,71.70
2018-02-16T11:12:19.720Z,73.20
2018-02-16T11:16:23.020Z,74.20
2018-02-16T11:20:26.297Z,72.00
2018-02-16T11:24:28.817Z,72.00
2018-02-16T11:28:32.114Z,70.50
2018-02-16T11:32:35.399Z,70.60
2018-02-16T11:36:37.926Z,70.50
2018-02-16T11:40:40.464Z,71.10
2018-02-16T11:44:42.984Z,71.80
2018-02-16T11:48:46.313Z,72.60
2018-02-16T11:52:48.830Z,72.60
2018-02-16T11:56:51.348Z,71.80
2018-02-16T12:00:54.650Z,70.00
2018-02-16T12:04:58.153Z,71.30
2018-02-16T12:09:01.454Z,72.40
2018-02-16T12:13:04.144Z,72.40
2018-02-16T12:17:07.412Z,73.30
2018-02-16T12:21:09.948Z,73.20
2018-02-16T12:25:13.246Z,73.20
2018-02-16T12:29:16.571Z,73.10
2018-02-16T12:33:19.126Z,73.10
2018-02-16T12:37:21.660Z,73.40
2018-02-16T12:41:24.171Z,73.50
2018-02-16T12:45:26.705Z,73.50
2018-02-16T12:49:29.253Z,74.10
2018-02-16T12:53:31.796Z,73.80
2018-02-16T12:57:34.355Z,73.60
2018-02-16T13:01:37.641Z,73.90
2018-02-16T13:05:40.176Z,73.70
2018-02-16T13:09:42.745Z,74.50
2018-02-16T13:13:45.285Z,74.90
2018-02-16T13:17:47.839Z,74.60
2018-02-16T13:21:50.407Z,74.50
2018-02-16T13:25:52.947Z,74.60
2018-02-16T13:29:55.480Z,74.10
2018-02-16T13:33:58.040Z,74.00
2018-02-16T13:38:01.351Z,75.60
2018-02-16T13:42:04.636Z,76.10
2018-02-16T13:46:07.198Z,76.00
2018-02-16T13:50:09.746Z,75.70
2018-02-16T13:54:12.294Z,76.10
2018-02-16T13:58:14.866Z,76.60
2018-02-16T14:02:18.176Z,77.40
2018-02-16T14:06:20.793Z,77.30
2018-02-16T14:10:24.111Z,78.50
2018-02-16T14:14:30.044Z,78.20
2018-02-16T14:18:32.579Z,77.90
2018-02-16T14:22:35.126Z,77.20
2018-02-16T14:26:38.424Z,75.90
2018-02-16T14:30:41.132Z,75.40
2018-02-16T14:34:44.418Z,75.40
2018-02-16T14:38:48.869Z,75.30
2018-02-16T14:42:53.276Z,76.20
2018-02-16T14:46:55.892Z,76.10
2018-02-16T14:50:58.459Z,76.30
2018-02-16T14:55:00.997Z,76.80
2018-02-16T14:59:03.534Z,77.00
2018-02-16T15:03:06.871Z,77.80
2018-02-16T15:07:09.387Z,78.40
2018-02-16T15:11:11.931Z,77.90
2018-02-16T15:15:14.448Z,77.80
2018-02-16T15:19:16.988Z,78.20
2018-02-16T15:23:20.272Z,78.50
2018-02-16T15:27:22.897Z,78.40
2018-02-16T15:31:25.411Z,78.10
2018-02-16T15:35:27.949Z,77.90
2018-02-16T15:39:31.234Z,78.90
2018-02-16T15:43:33.794Z,78.90
2018-02-16T15:47:36.306Z,79.60
2018-02-16T15:51:38.860Z,80.10
2018-02-16T15:55:41.462Z,80.30
2018-02-16T15:59:44.000Z,80.50
2018-02-16T16:03:47.444Z,81.10
2018-02-16T16:07:49.987Z,80.40
2018-02-16T16:11:53.292Z,81.60
2018-02-16T16:15:55.858Z,81.50
2018-02-16T16:19:58.395Z,81.70
2018-02-16T16:24:00.921Z,81.90
2018-02-16T16:28:03.440Z,82.00
2018-02-16T16:32:06.770Z,82.20
2018-02-16T16:36:09.272Z,82.20
2018-02-16T16:40:11.858Z,82.40
2018-02-16T16:44:14.583Z,82.60
2018-02-16T16:48:17.129Z,82.60
2018-02-16T16:52:19.644Z,82.70
2018-02-16T16:56:22.179Z,82.50
2018-02-16T17:00:24.694Z,82.80
2018-02-16T17:04:27.220Z,82.90
2018-02-16T17:08:30.505Z,82.80
2018-02-16T17:12:33.045Z,82.80
2018-02-16T17:16:35.585Z,83.00
2018-02-16T17:20:38.138Z,83.10
2018-02-16T17:24:40.657Z,83.50
2018-02-16T17:28:43.190Z,83.80
2018-02-16T17:32:45.711Z,83.80
2018-02-16T17:36:48.245Z,83.80
2018-02-16T17:40:50.788Z,84.00
2018-02-16T17:44:53.330Z,84.10
2018-02-16T17:48:55.873Z,84.20
2018-02-16T17:52:58.395Z,84.60
2018-02-16T17:57:00.953Z,84.90
2018-02-16T18:01:03.486Z,85.00
2018-02-16T18:05:06.032Z,85.00
2018-02-16T18:09:08.545Z,85.20
2018-02-16T18:13:11.079Z,85.50
2018-02-16T18:17:13.595Z,85.60
2018-02-16T18:21:17.686Z,85.80
2018-02-16T18:25:21.091Z,86.00
2018-02-16T18:29:23.625Z,86.00
2018-02-16T18:33:26.155Z,85.80
2018-02-16T18:37:28.714Z,86.00
2018-02-16T18:41:31.236Z,86.00
2018-02-16T18:45:33.777Z,86.30
2018-02-16T18:49:36.295Z,86.40
2018-02-16T18:53:38.841Z,86.50
2018-02-16T18:57:41.361Z,86.60
2018-02-16T19:01:43.914Z,86.60
2018-02-16T19:05:46.428Z,86.80
2018-02-16T19:09:49.003Z,86.70
2018-02-16T19:13:51.512Z,86.70
2018-02-16T19:17:54.062Z,86.80
2018-02-16T19:21:56.589Z,86.70
2018-02-16T19:25:59.165Z,86.70
2018-02-16T19:30:01.686Z,86.60
2018-02-16T19:34:04.234Z,86.60
2018-02-16T19:38:06.749Z,86.60
2018-02-16T19:42:09.279Z,86.80
2018-02-16T19:46:11.822Z,86.70
2018-02-16T19:50:15.998Z,86.80
2018-02-16T19:54:18.538Z,86.80
2018-02-16T19:58:21.087Z,87.00
2018-02-16T20:02:23.624Z,87.00
2018-02-16T20:06:26.985Z,86.80
2018-02-16T20:10:30.204Z,86.80
2018-02-16T20:14:32.739Z,87.00
2018-02-16T20:18:35.255Z,86.80
2018-02-16T20:22:37.823Z,87.00
2018-02-16T20:26:40.341Z,87.10
2018-02-16T20:30:42.897Z,87.10
2018-02-16T20:34:45.452Z,87.20
2018-02-16T20:38:48.016Z,87.40
2018-02-16T20:42:50.664Z,87.60
2018-02-16T20:46:53.224Z,88.00
2018-02-16T20:50:55.741Z,87.80
2018-02-16T20:54:58.278Z,87.90
2018-02-16T20:59:01.571Z,88.60
2018-02-16T21:03:04.924Z,88.40
2018-02-16T21:07:07.431Z,88.00
2018-02-16T21:11:09.996Z,88.40
2018-02-16T21:15:12.528Z,88.40
2018-02-16T21:19:15.109Z,88.40
2018-02-16T21:23:17.613Z,88.40
2018-02-16T21:27:20.923Z,88.80
2018-02-16T21:31:24.242Z,88.70
2018-02-16T21:35:27.521Z,88.90
2018-02-16T21:39:30.810Z,88.90
2018-02-16T21:43:33.360Z,88.80
2018-02-16T21:47:35.894Z,88.90
2018-02-16T21:51:39.269Z,89.20
2018-02-16T21:55:41.772Z,89.30
2018-02-16T21:59:44.311Z,89.30
2018-02-16T22:03:46.866Z,89.40
2018-02-16T22:07:50.859Z,90.00
2018-02-16T22:11:53.582Z,90.00
2018-02-16T22:15:56.112Z,90.00
2018-02-16T22:19:58.619Z,90.00
2018-02-16T22:24:01.180Z,90.10
2018-02-16T22:28:03.679Z,90.20
2018-02-16T22:32:06.208Z,90.30
2018-02-16T22:36:09.633Z,90.40
2018-02-16T22:40:12.228Z,90.40
2018-02-16T22:44:14.742Z,90.40
2018-02-16T22:48:17.288Z,90.50
2018-02-16T22:52:19.806Z,90.50
2018-02-16T22:56:22.383Z,90.60
2018-02-16T23:00:24.936Z,90.80
2018-02-16T23:04:28.251Z,90.90
2018-02-16T23:08:30.803Z,90.90
2018-02-16T23:12:33.342Z,90.90
2018-02-16T23:16:35.958Z,90.90
2018-02-16T23:20:38.491Z,90.90
2018-02-16T23:24:41.045Z,90.80
2018-02-16T23:28:43.565Z,90.90
2018-02-16T23:32:46.099Z,90.90
2018-02-16T23:36:48.614Z,91.10
2018-02-16T23:40:51.918Z,91.40
2018-02-16T23:44:55.167Z,91.60
2018-02-16T23:48:58.497Z,91.80
2018-02-16T23:53:01.017Z,91.50
2018-02-16T23:57:03.608Z,91.70
